East Maine, New York
Current Conditions -  °F | °C
As of 8:53 AM on Wednesday 28 Jan 2015 (Local Time) from KBGM Reporting Station
Clear Clear  
Wind Chill: -6°   Ceiling: Unl
Heat Index: 10°   Visibility: 10mi
Dew Point:   Wind: 14mph
Humidity: 73%   Direction: 320°NW
Pressure: 30.05"   Gusts: 25mph
Location:  42.1768°N, 76.0035°W
Report Text: KBGM 281353Z 32012G22KT 10SM CLR M12/M16 A3005 RMK AO2 SLP212 T11221161
Loading
Personal Weather Stations






























Interactive Weather Map New forecast layout! Learn more

10-Day Weather Forecast

Advertisements
Track Severe Weather on mobile